sensor_id;sensor_type;location;lat;lon;timestamp;P1;durP1;ratioP1;P2;durP2;ratioP2
54177;SDS011;40085;53.004;6.770;2023-04-24T00:01:54;0.52;;;0.40;;
54177;SDS011;40085;53.004;6.770;2023-04-24T00:04:20;1.35;;;0.50;;
54177;SDS011;40085;53.004;6.770;2023-04-24T00:06:46;0.35;;;0.35;;
54177;SDS011;40085;53.004;6.770;2023-04-24T00:09:14;0.20;;;0.20;;
54177;SDS011;40085;53.004;6.770;2023-04-24T00:11:41;0.75;;;0.30;;
54177;SDS011;40085;53.004;6.770;2023-04-24T00:14:07;0.52;;;0.30;;
54177;SDS011;40085;53.004;6.770;2023-04-24T00:16:33;0.40;;;0.40;;
54177;SDS011;40085;53.004;6.770;2023-04-24T00:18:59;1.17;;;0.35;;
54177;SDS011;40085;53.004;6.770;2023-04-24T00:21:25;0.45;;;0.32;;
54177;SDS011;40085;53.004;6.770;2023-04-24T00:23:52;0.32;;;0.32;;
54177;SDS011;40085;53.004;6.770;2023-04-24T00:26:18;0.60;;;0.35;;
54177;SDS011;40085;53.004;6.770;2023-04-24T00:28:44;2.83;;;0.40;;
54177;SDS011;40085;53.004;6.770;2023-04-24T00:31:10;0.55;;;0.50;;
54177;SDS011;40085;53.004;6.770;2023-04-24T00:33:36;0.40;;;0.40;;
54177;SDS011;40085;53.004;6.770;2023-04-24T00:36:02;0.40;;;0.40;;
54177;SDS011;40085;53.004;6.770;2023-04-24T00:38:28;0.65;;;0.40;;
54177;SDS011;40085;53.004;6.770;2023-04-24T00:40:54;0.95;;;0.60;;
54177;SDS011;40085;53.004;6.770;2023-04-24T00:43:21;0.82;;;0.50;;
54177;SDS011;40085;53.004;6.770;2023-04-24T00:45:47;0.63;;;0.50;;
54177;SDS011;40085;53.004;6.770;2023-04-24T00:48:13;0.60;;;0.50;;
54177;SDS011;40085;53.004;6.770;2023-04-24T00:50:40;0.50;;;0.50;;
54177;SDS011;40085;53.004;6.770;2023-04-24T00:53:06;0.52;;;0.43;;
54177;SDS011;40085;53.004;6.770;2023-04-24T00:55:32;0.98;;;0.65;;
54177;SDS011;40085;53.004;6.770;2023-04-24T00:57:58;1.33;;;0.55;;
54177;SDS011;40085;53.004;6.770;2023-04-24T01:00:24;0.60;;;0.60;;
54177;SDS011;40085;53.004;6.770;2023-04-24T01:02:50;0.60;;;0.60;;
54177;SDS011;40085;53.004;6.770;2023-04-24T01:05:18;0.77;;;0.60;;
54177;SDS011;40085;53.004;6.770;2023-04-24T01:07:45;1.30;;;0.65;;
54177;SDS011;40085;53.004;6.770;2023-04-24T01:10:13;0.98;;;0.70;;
54177;SDS011;40085;53.004;6.770;2023-04-24T01:12:39;0.73;;;0.63;;
54177;SDS011;40085;53.004;6.770;2023-04-24T01:15:06;2.42;;;1.02;;
54177;SDS011;40085;53.004;6.770;2023-04-24T01:17:32;1.42;;;0.70;;
54177;SDS011;40085;53.004;6.770;2023-04-24T01:19:59;0.80;;;0.75;;
54177;SDS011;40085;53.004;6.770;2023-04-24T01:22:26;1.17;;;0.55;;
54177;SDS011;40085;53.004;6.770;2023-04-24T01:24:52;0.68;;;0.60;;
54177;SDS011;40085;53.004;6.770;2023-04-24T01:27:18;0.98;;;0.80;;
54177;SDS011;40085;53.004;6.770;2023-04-24T01:29:45;2.22;;;0.82;;
54177;SDS011;40085;53.004;6.770;2023-04-24T01:32:12;1.23;;;1.00;;
54177;SDS011;40085;53.004;6.770;2023-04-24T01:34:39;1.58;;;0.88;;
54177;SDS011;40085;53.004;6.770;2023-04-24T01:37:05;1.35;;;1.10;;
54177;SDS011;40085;53.004;6.770;2023-04-24T01:39:31;2.78;;;1.10;;
54177;SDS011;40085;53.004;6.770;2023-04-24T01:41:58;3.35;;;1.58;;
54177;SDS011;40085;53.004;6.770;2023-04-24T01:44:25;1.77;;;1.20;;
54177;SDS011;40085;53.004;6.770;2023-04-24T01:46:52;2.10;;;1.52;;
54177;SDS011;40085;53.004;6.770;2023-04-24T01:49:19;2.15;;;1.45;;
54177;SDS011;40085;53.004;6.770;2023-04-24T01:51:45;3.17;;;1.70;;
54177;SDS011;40085;53.004;6.770;2023-04-24T01:54:12;2.63;;;1.63;;
54177;SDS011;40085;53.004;6.770;2023-04-24T01:56:41;2.80;;;1.77;;
54177;SDS011;40085;53.004;6.770;2023-04-24T01:59:09;3.45;;;1.73;;
54177;SDS011;40085;53.004;6.770;2023-04-24T02:01:35;2.25;;;1.50;;
54177;SDS011;40085;53.004;6.770;2023-04-24T02:04:02;2.72;;;1.98;;
54177;SDS011;40085;53.004;6.770;2023-04-24T02:06:28;2.92;;;2.00;;
54177;SDS011;40085;53.004;6.770;2023-04-24T02:08:56;3.53;;;2.08;;
54177;SDS011;40085;53.004;6.770;2023-04-24T02:11:22;2.88;;;1.67;;
54177;SDS011;40085;53.004;6.770;2023-04-24T02:13:48;2.45;;;1.70;;
54177;SDS011;40085;53.004;6.770;2023-04-24T02:16:15;2.55;;;1.63;;
54177;SDS011;40085;53.004;6.770;2023-04-24T02:18:41;2.60;;;1.88;;
54177;SDS011;40085;53.004;6.770;2023-04-24T02:21:07;2.58;;;1.90;;
54177;SDS011;40085;53.004;6.770;2023-04-24T02:23:33;4.18;;;1.73;;
54177;SDS011;40085;53.004;6.770;2023-04-24T02:25:59;2.30;;;1.65;;
54177;SDS011;40085;53.004;6.770;2023-04-24T02:28:24;2.70;;;2.10;;
54177;SDS011;40085;53.004;6.770;2023-04-24T02:30:50;2.78;;;2.00;;
54177;SDS011;40085;53.004;6.770;2023-04-24T02:33:16;2.72;;;2.17;;
54177;SDS011;40085;53.004;6.770;2023-04-24T02:35:42;2.67;;;1.90;;
54177;SDS011;40085;53.004;6.770;2023-04-24T02:38:08;2.88;;;2.42;;
54177;SDS011;40085;53.004;6.770;2023-04-24T02:40:34;3.20;;;2.28;;
54177;SDS011;40085;53.004;6.770;2023-04-24T02:43:00;3.15;;;2.08;;
54177;SDS011;40085;53.004;6.770;2023-04-24T02:45:26;2.45;;;1.70;;
54177;SDS011;40085;53.004;6.770;2023-04-24T02:47:52;2.20;;;1.73;;
54177;SDS011;40085;53.004;6.770;2023-04-24T02:50:18;2.90;;;1.90;;
54177;SDS011;40085;53.004;6.770;2023-04-24T02:52:44;2.25;;;1.90;;
54177;SDS011;40085;53.004;6.770;2023-04-24T02:55:10;2.78;;;2.20;;
54177;SDS011;40085;53.004;6.770;2023-04-24T02:57:36;2.42;;;1.90;;
54177;SDS011;40085;53.004;6.770;2023-04-24T03:00:02;2.38;;;2.00;;
54177;SDS011;40085;53.004;6.770;2023-04-24T03:02:31;1.65;;;1.50;;
54177;SDS011;40085;53.004;6.770;2023-04-24T03:04:57;2.40;;;1.83;;
54177;SDS011;40085;53.004;6.770;2023-04-24T03:07:24;1.75;;;1.50;;
54177;SDS011;40085;53.004;6.770;2023-04-24T03:09:50;1.63;;;1.52;;
54177;SDS011;40085;53.004;6.770;2023-04-24T03:12:16;2.70;;;1.58;;
54177;SDS011;40085;53.004;6.770;2023-04-24T03:14:43;2.75;;;1.70;;
54177;SDS011;40085;53.004;6.770;2023-04-24T03:17:09;3.33;;;1.70;;
54177;SDS011;40085;53.004;6.770;2023-04-24T03:19:35;3.05;;;1.85;;
54177;SDS011;40085;53.004;6.770;2023-04-24T03:22:03;2.10;;;1.55;;
54177;SDS011;40085;53.004;6.770;2023-04-24T03:24:29;2.80;;;1.88;;
54177;SDS011;40085;53.004;6.770;2023-04-24T03:26:56;1.95;;;1.52;;
54177;SDS011;40085;53.004;6.770;2023-04-24T03:29:22;1.95;;;1.55;;
54177;SDS011;40085;53.004;6.770;2023-04-24T03:31:48;2.53;;;1.88;;
54177;SDS011;40085;53.004;6.770;2023-04-24T03:34:14;3.80;;;2.33;;
54177;SDS011;40085;53.004;6.770;2023-04-24T03:36:40;4.13;;;1.85;;
54177;SDS011;40085;53.004;6.770;2023-04-24T03:39:06;2.00;;;1.75;;
54177;SDS011;40085;53.004;6.770;2023-04-24T03:41:32;2.95;;;2.30;;
54177;SDS011;40085;53.004;6.770;2023-04-24T03:43:58;2.67;;;2.00;;
54177;SDS011;40085;53.004;6.770;2023-04-24T03:46:25;3.25;;;2.15;;
54177;SDS011;40085;53.004;6.770;2023-04-24T03:48:51;2.55;;;2.05;;
54177;SDS011;40085;53.004;6.770;2023-04-24T03:51:17;3.35;;;2.15;;
54177;SDS011;40085;53.004;6.770;2023-04-24T03:53:43;4.18;;;2.30;;
54177;SDS011;40085;53.004;6.770;2023-04-24T03:56:09;6.88;;;2.70;;
54177;SDS011;40085;53.004;6.770;2023-04-24T03:58:35;3.30;;;2.35;;
54177;SDS011;40085;53.004;6.770;2023-04-24T04:01:01;3.03;;;2.13;;
54177;SDS011;40085;53.004;6.770;2023-04-24T04:03:27;3.50;;;2.30;;
54177;SDS011;40085;53.004;6.770;2023-04-24T04:05:53;3.58;;;2.35;;
54177;SDS011;40085;53.004;6.770;2023-04-24T04:08:19;3.35;;;2.22;;
54177;SDS011;40085;53.004;6.770;2023-04-24T04:10:45;3.17;;;2.33;;
54177;SDS011;40085;53.004;6.770;2023-04-24T04:13:11;3.38;;;2.45;;
54177;SDS011;40085;53.004;6.770;2023-04-24T04:15:37;2.30;;;1.98;;
54177;SDS011;40085;53.004;6.770;2023-04-24T04:18:03;3.00;;;1.90;;
54177;SDS011;40085;53.004;6.770;2023-04-24T04:20:30;3.78;;;2.00;;
54177;SDS011;40085;53.004;6.770;2023-04-24T04:22:56;2.92;;;2.25;;
54177;SDS011;40085;53.004;6.770;2023-04-24T04:25:22;2.78;;;1.95;;
54177;SDS011;40085;53.004;6.770;2023-04-24T04:27:48;2.63;;;1.60;;
54177;SDS011;40085;53.004;6.770;2023-04-24T04:30:16;3.22;;;1.92;;
54177;SDS011;40085;53.004;6.770;2023-04-24T04:32:43;1.95;;;1.52;;
54177;SDS011;40085;53.004;6.770;2023-04-24T04:35:09;1.85;;;1.35;;
54177;SDS011;40085;53.004;6.770;2023-04-24T04:37:35;3.67;;;1.80;;
54177;SDS011;40085;53.004;6.770;2023-04-24T04:40:01;2.83;;;1.85;;
54177;SDS011;40085;53.004;6.770;2023-04-24T04:42:31;1.70;;;1.30;;
54177;SDS011;40085;53.004;6.770;2023-04-24T04:44:59;1.85;;;1.45;;
54177;SDS011;40085;53.004;6.770;2023-04-24T04:47:25;2.00;;;1.10;;
54177;SDS011;40085;53.004;6.770;2023-04-24T04:49:53;1.48;;;1.15;;
54177;SDS011;40085;53.004;6.770;2023-04-24T04:52:19;1.33;;;1.08;;
54177;SDS011;40085;53.004;6.770;2023-04-24T04:54:49;0.90;;;0.60;;
54177;SDS011;40085;53.004;6.770;2023-04-24T04:57:15;1.27;;;0.70;;
54177;SDS011;40085;53.004;6.770;2023-04-24T04:59:41;1.13;;;0.80;;
54177;SDS011;40085;53.004;6.770;2023-04-24T05:02:08;1.05;;;0.80;;
54177;SDS011;40085;53.004;6.770;2023-04-24T05:04:34;2.10;;;1.13;;
54177;SDS011;40085;53.004;6.770;2023-04-24T05:07:00;1.45;;;1.17;;
54177;SDS011;40085;53.004;6.770;2023-04-24T05:09:26;1.40;;;0.95;;
54177;SDS011;40085;53.004;6.770;2023-04-24T05:11:54;1.63;;;1.38;;
54177;SDS011;40085;53.004;6.770;2023-04-24T05:14:20;2.03;;;1.20;;
54177;SDS011;40085;53.004;6.770;2023-04-24T05:16:46;4.88;;;1.85;;
54177;SDS011;40085;53.004;6.770;2023-04-24T05:19:12;3.90;;;1.63;;
54177;SDS011;40085;53.004;6.770;2023-04-24T05:21:40;3.58;;;2.22;;
54177;SDS011;40085;53.004;6.770;2023-04-24T05:24:06;1.65;;;1.40;;
54177;SDS011;40085;53.004;6.770;2023-04-24T05:26:32;2.65;;;1.65;;
54177;SDS011;40085;53.004;6.770;2023-04-24T05:28:58;2.53;;;1.50;;
54177;SDS011;40085;53.004;6.770;2023-04-24T05:31:25;2.10;;;1.50;;
54177;SDS011;40085;53.004;6.770;2023-04-24T05:33:51;2.22;;;1.52;;
54177;SDS011;40085;53.004;6.770;2023-04-24T05:36:17;2.33;;;1.17;;
54177;SDS011;40085;53.004;6.770;2023-04-24T05:38:43;2.30;;;1.50;;
54177;SDS011;40085;53.004;6.770;2023-04-24T05:41:09;2.45;;;1.40;;
54177;SDS011;40085;53.004;6.770;2023-04-24T05:43:35;2.10;;;1.35;;
54177;SDS011;40085;53.004;6.770;2023-04-24T05:46:00;2.65;;;1.27;;
54177;SDS011;40085;53.004;6.770;2023-04-24T05:48:26;1.38;;;1.10;;
54177;SDS011;40085;53.004;6.770;2023-04-24T05:50:53;1.30;;;1.08;;
54177;SDS011;40085;53.004;6.770;2023-04-24T05:53:19;2.97;;;1.27;;
54177;SDS011;40085;53.004;6.770;2023-04-24T05:55:45;1.77;;;1.08;;
54177;SDS011;40085;53.004;6.770;2023-04-24T05:58:11;2.35;;;1.20;;
54177;SDS011;40085;53.004;6.770;2023-04-24T06:00:37;2.45;;;1.15;;
54177;SDS011;40085;53.004;6.770;2023-04-24T06:03:06;1.40;;;0.90;;
54177;SDS011;40085;53.004;6.770;2023-04-24T06:05:32;1.38;;;0.82;;
54177;SDS011;40085;53.004;6.770;2023-04-24T06:07:58;1.23;;;0.90;;
54177;SDS011;40085;53.004;6.770;2023-04-24T06:10:24;1.48;;;0.98;;
54177;SDS011;40085;53.004;6.770;2023-04-24T06:12:50;1.80;;;1.10;;
54177;SDS011;40085;53.004;6.770;2023-04-24T06:15:16;1.33;;;0.90;;
54177;SDS011;40085;53.004;6.770;2023-04-24T06:17:42;1.60;;;0.98;;
54177;SDS011;40085;53.004;6.770;2023-04-24T06:20:08;0.85;;;0.73;;
54177;SDS011;40085;53.004;6.770;2023-04-24T06:22:35;1.02;;;0.80;;
54177;SDS011;40085;53.004;6.770;2023-04-24T06:25:02;2.28;;;1.13;;
54177;SDS011;40085;53.004;6.770;2023-04-24T06:27:28;2.58;;;0.93;;
54177;SDS011;40085;53.004;6.770;2023-04-24T06:29:54;1.45;;;1.10;;
54177;SDS011;40085;53.004;6.770;2023-04-24T06:32:21;2.13;;;1.20;;
54177;SDS011;40085;53.004;6.770;2023-04-24T06:34:47;1.42;;;0.90;;
54177;SDS011;40085;53.004;6.770;2023-04-24T06:37:13;2.28;;;1.15;;
54177;SDS011;40085;53.004;6.770;2023-04-24T06:39:41;1.98;;;1.27;;
54177;SDS011;40085;53.004;6.770;2023-04-24T06:42:07;1.48;;;0.85;;
54177;SDS011;40085;53.004;6.770;2023-04-24T06:44:34;3.88;;;1.35;;
54177;SDS011;40085;53.004;6.770;2023-04-24T06:49:31;1.83;;;1.10;;
54177;SDS011;40085;53.004;6.770;2023-04-24T06:51:57;1.98;;;1.08;;
54177;SDS011;40085;53.004;6.770;2023-04-24T06:54:23;2.50;;;1.23;;
54177;SDS011;40085;53.004;6.770;2023-04-24T06:56:49;2.50;;;0.88;;
54177;SDS011;40085;53.004;6.770;2023-04-24T06:59:16;1.00;;;0.80;;
54177;SDS011;40085;53.004;6.770;2023-04-24T07:01:42;0.75;;;0.60;;
54177;SDS011;40085;53.004;6.770;2023-04-24T07:04:08;1.80;;;0.70;;
54177;SDS011;40085;53.004;6.770;2023-04-24T07:06:34;0.63;;;0.52;;
54177;SDS011;40085;53.004;6.770;2023-04-24T07:09:01;1.65;;;0.73;;
54177;SDS011;40085;53.004;6.770;2023-04-24T07:11:28;1.10;;;0.73;;
54177;SDS011;40085;53.004;6.770;2023-04-24T07:13:54;1.45;;;0.85;;
54177;SDS011;40085;53.004;6.770;2023-04-24T07:16:20;1.83;;;1.10;;
54177;SDS011;40085;53.004;6.770;2023-04-24T07:18:46;1.70;;;1.00;;
54177;SDS011;40085;53.004;6.770;2023-04-24T07:21:12;1.95;;;1.08;;
54177;SDS011;40085;53.004;6.770;2023-04-24T07:23:37;2.42;;;1.08;;
54177;SDS011;40085;53.004;6.770;2023-04-24T07:26:03;2.92;;;1.45;;
54177;SDS011;40085;53.004;6.770;2023-04-24T07:28:29;3.92;;;1.63;;
54177;SDS011;40085;53.004;6.770;2023-04-24T07:30:56;3.38;;;1.63;;
54177;SDS011;40085;53.004;6.770;2023-04-24T07:33:23;3.17;;;1.70;;
54177;SDS011;40085;53.004;6.770;2023-04-24T07:35:49;3.08;;;1.63;;
54177;SDS011;40085;53.004;6.770;2023-04-24T07:38:15;2.58;;;1.50;;
54177;SDS011;40085;53.004;6.770;2023-04-24T07:40:41;1.70;;;1.33;;
54177;SDS011;40085;53.004;6.770;2023-04-24T07:43:07;1.50;;;1.05;;
54177;SDS011;40085;53.004;6.770;2023-04-24T07:45:32;3.28;;;1.10;;
54177;SDS011;40085;53.004;6.770;2023-04-24T07:48:02;0.95;;;0.70;;
54177;SDS011;40085;53.004;6.770;2023-04-24T07:50:28;1.63;;;0.60;;
54177;SDS011;40085;53.004;6.770;2023-04-24T07:52:53;0.57;;;0.50;;
54177;SDS011;40085;53.004;6.770;2023-04-24T07:55:19;1.08;;;0.40;;
54177;SDS011;40085;53.004;6.770;2023-04-24T07:57:44;0.70;;;0.60;;
54177;SDS011;40085;53.004;6.770;2023-04-24T08:00:10;0.57;;;0.52;;
54177;SDS011;40085;53.004;6.770;2023-04-24T08:02:36;0.73;;;0.65;;
54177;SDS011;40085;53.004;6.770;2023-04-24T08:05:02;1.80;;;0.73;;
54177;SDS011;40085;53.004;6.770;2023-04-24T08:07:28;1.27;;;0.77;;
54177;SDS011;40085;53.004;6.770;2023-04-24T08:09:54;1.67;;;0.85;;
54177;SDS011;40085;53.004;6.770;2023-04-24T08:12:20;1.88;;;0.90;;
54177;SDS011;40085;53.004;6.770;2023-04-24T08:14:45;1.10;;;0.77;;
54177;SDS011;40085;53.004;6.770;2023-04-24T08:17:11;2.00;;;0.90;;
54177;SDS011;40085;53.004;6.770;2023-04-24T08:19:36;1.40;;;0.82;;
54177;SDS011;40085;53.004;6.770;2023-04-24T08:22:08;0.88;;;0.55;;
54177;SDS011;40085;53.004;6.770;2023-04-24T08:24:33;1.85;;;0.85;;
54177;SDS011;40085;53.004;6.770;2023-04-24T08:26:59;1.20;;;0.80;;
54177;SDS011;40085;53.004;6.770;2023-04-24T08:29:26;1.98;;;1.35;;
54177;SDS011;40085;53.004;6.770;2023-04-24T08:31:51;2.15;;;0.90;;
54177;SDS011;40085;53.004;6.770;2023-04-24T08:34:19;2.00;;;1.15;;
54177;SDS011;40085;53.004;6.770;2023-04-24T08:36:45;2.38;;;1.42;;
54177;SDS011;40085;53.004;6.770;2023-04-24T08:39:11;5.35;;;1.58;;
54177;SDS011;40085;53.004;6.770;2023-04-24T08:41:36;3.28;;;1.75;;
54177;SDS011;40085;53.004;6.770;2023-04-24T08:44:03;3.20;;;1.77;;
54177;SDS011;40085;53.004;6.770;2023-04-24T08:46:29;9.27;;;2.88;;
54177;SDS011;40085;53.004;6.770;2023-04-24T08:48:55;7.32;;;3.88;;
54177;SDS011;40085;53.004;6.770;2023-04-24T08:51:21;7.00;;;3.53;;
54177;SDS011;40085;53.004;6.770;2023-04-24T08:53:51;6.70;;;3.22;;
54177;SDS011;40085;53.004;6.770;2023-04-24T08:56:19;7.72;;;4.13;;
54177;SDS011;40085;53.004;6.770;2023-04-24T08:58:48;9.20;;;4.63;;
54177;SDS011;40085;53.004;6.770;2023-04-24T09:01:18;8.90;;;4.47;;
54177;SDS011;40085;53.004;6.770;2023-04-24T09:03:45;11.35;;;4.50;;
54177;SDS011;40085;53.004;6.770;2023-04-24T09:06:13;10.60;;;4.65;;
54177;SDS011;40085;53.004;6.770;2023-04-24T09:08:39;8.85;;;4.50;;
54177;SDS011;40085;53.004;6.770;2023-04-24T09:11:07;14.68;;;4.38;;
54177;SDS011;40085;53.004;6.770;2023-04-24T09:13:33;10.02;;;4.65;;
54177;SDS011;40085;53.004;6.770;2023-04-24T09:15:59;7.35;;;4.63;;
54177;SDS011;40085;53.004;6.770;2023-04-24T09:18:25;16.45;;;5.00;;
54177;SDS011;40085;53.004;6.770;2023-04-24T09:21:06;9.18;;;4.85;;
54177;SDS011;40085;53.004;6.770;2023-04-24T09:23:33;9.80;;;4.80;;
54177;SDS011;40085;53.004;6.770;2023-04-24T09:25:59;7.07;;;4.68;;
54177;SDS011;40085;53.004;6.770;2023-04-24T09:28:29;12.30;;;4.82;;
54177;SDS011;40085;53.004;6.770;2023-04-24T09:33:55;7.95;;;5.07;;
54177;SDS011;40085;53.004;6.770;2023-04-24T09:36:34;11.90;;;4.80;;
54177;SDS011;40085;53.004;6.770;2023-04-24T09:39:05;6.72;;;4.80;;
54177;SDS011;40085;53.004;6.770;2023-04-24T09:41:33;10.23;;;4.95;;
54177;SDS011;40085;53.004;6.770;2023-04-24T09:44:12;10.20;;;4.45;;
54177;SDS011;40085;53.004;6.770;2023-04-24T09:46:40;11.73;;;4.85;;
54177;SDS011;40085;53.004;6.770;2023-04-24T09:49:13;11.13;;;4.95;;
54177;SDS011;40085;53.004;6.770;2023-04-24T09:51:41;9.48;;;4.40;;
54177;SDS011;40085;53.004;6.770;2023-04-24T09:54:13;7.88;;;3.95;;
54177;SDS011;40085;53.004;6.770;2023-04-24T09:56:43;9.05;;;3.70;;
54177;SDS011;40085;53.004;6.770;2023-04-24T09:59:10;5.82;;;3.47;;
54177;SDS011;40085;53.004;6.770;2023-04-24T10:01:37;4.80;;;3.45;;
54177;SDS011;40085;53.004;6.770;2023-04-24T10:04:03;7.68;;;3.80;;
54177;SDS011;40085;53.004;6.770;2023-04-24T10:06:29;10.52;;;3.65;;
54177;SDS011;40085;53.004;6.770;2023-04-24T10:08:58;6.95;;;3.45;;
54177;SDS011;40085;53.004;6.770;2023-04-24T10:11:27;8.60;;;3.58;;
54177;SDS011;40085;53.004;6.770;2023-04-24T10:13:53;8.73;;;3.47;;
54177;SDS011;40085;53.004;6.770;2023-04-24T10:16:20;5.43;;;3.22;;
54177;SDS011;40085;53.004;6.770;2023-04-24T10:18:47;11.40;;;3.67;;
54177;SDS011;40085;53.004;6.770;2023-04-24T10:21:14;7.45;;;3.45;;
54177;SDS011;40085;53.004;6.770;2023-04-24T10:23:40;5.18;;;2.85;;
54177;SDS011;40085;53.004;6.770;2023-04-24T10:26:07;8.18;;;3.55;;
54177;SDS011;40085;53.004;6.770;2023-04-24T10:28:34;6.07;;;2.92;;
54177;SDS011;40085;53.004;6.770;2023-04-24T10:31:01;5.18;;;2.58;;
54177;SDS011;40085;53.004;6.770;2023-04-24T10:33:27;7.57;;;3.03;;
54177;SDS011;40085;53.004;6.770;2023-04-24T10:35:55;7.97;;;2.83;;
54177;SDS011;40085;53.004;6.770;2023-04-24T10:38:24;7.18;;;3.08;;
54177;SDS011;40085;53.004;6.770;2023-04-24T10:40:51;5.63;;;2.65;;
54177;SDS011;40085;53.004;6.770;2023-04-24T10:43:31;5.05;;;2.13;;
54177;SDS011;40085;53.004;6.770;2023-04-24T10:46:02;5.72;;;2.25;;
54177;SDS011;40085;53.004;6.770;2023-04-24T10:48:29;4.03;;;2.20;;
54177;SDS011;40085;53.004;6.770;2023-04-24T10:50:55;3.65;;;1.80;;
54177;SDS011;40085;53.004;6.770;2023-04-24T10:53:22;7.75;;;2.55;;
54177;SDS011;40085;53.004;6.770;2023-04-24T10:55:49;3.53;;;1.60;;
54177;SDS011;40085;53.004;6.770;2023-04-24T10:58:21;4.75;;;2.00;;
54177;SDS011;40085;53.004;6.770;2023-04-24T11:00:57;8.02;;;2.97;;
54177;SDS011;40085;53.004;6.770;2023-04-24T11:03:28;3.38;;;1.80;;
54177;SDS011;40085;53.004;6.770;2023-04-24T11:06:03;6.90;;;2.25;;
54177;SDS011;40085;53.004;6.770;2023-04-24T11:19:06;5.82;;;1.50;;
54177;SDS011;40085;53.004;6.770;2023-04-24T11:21:39;2.65;;;1.45;;
54177;SDS011;40085;53.004;6.770;2023-04-24T11:24:23;3.28;;;1.10;;
54177;SDS011;40085;53.004;6.770;2023-04-24T11:26:51;5.03;;;1.50;;
54177;SDS011;40085;53.004;6.770;2023-04-24T11:29:22;1.75;;;0.98;;
54177;SDS011;40085;53.004;6.770;2023-04-24T11:32:14;1.38;;;1.25;;
54177;SDS011;40085;53.004;6.770;2023-04-24T11:34:51;1.95;;;1.27;;
54177;SDS011;40085;53.004;6.770;2023-04-24T11:37:18;3.25;;;1.17;;
54177;SDS011;40085;53.004;6.770;2023-04-24T11:39:43;1.70;;;0.95;;
54177;SDS011;40085;53.004;6.770;2023-04-24T11:42:09;2.88;;;1.20;;
54177;SDS011;40085;53.004;6.770;2023-04-24T11:44:35;2.45;;;0.90;;
54177;SDS011;40085;53.004;6.770;2023-04-24T11:47:04;1.27;;;0.68;;
54177;SDS011;40085;53.004;6.770;2023-04-24T11:49:30;4.43;;;1.27;;
54177;SDS011;40085;53.004;6.770;2023-04-24T11:51:56;3.55;;;1.20;;
54177;SDS011;40085;53.004;6.770;2023-04-24T11:54:22;1.10;;;0.90;;
54177;SDS011;40085;53.004;6.770;2023-04-24T11:56:47;2.38;;;0.80;;
54177;SDS011;40085;53.004;6.770;2023-04-24T11:59:14;2.25;;;0.98;;
54177;SDS011;40085;53.004;6.770;2023-04-24T12:01:43;2.85;;;1.25;;
54177;SDS011;40085;53.004;6.770;2023-04-24T12:04:13;4.35;;;0.95;;
54177;SDS011;40085;53.004;6.770;2023-04-24T12:06:43;2.20;;;1.00;;
54177;SDS011;40085;53.004;6.770;2023-04-24T12:09:24;5.47;;;0.93;;
54177;SDS011;40085;53.004;6.770;2023-04-24T12:11:53;3.83;;;1.15;;
54177;SDS011;40085;53.004;6.770;2023-04-24T12:14:22;4.97;;;1.42;;
54177;SDS011;40085;53.004;6.770;2023-04-24T12:16:49;1.67;;;0.90;;
54177;SDS011;40085;53.004;6.770;2023-04-24T12:19:20;2.78;;;1.02;;
54177;SDS011;40085;53.004;6.770;2023-04-24T12:21:58;3.78;;;1.05;;
54177;SDS011;40085;53.004;6.770;2023-04-24T12:24:25;3.90;;;0.82;;
54177;SDS011;40085;53.004;6.770;2023-04-24T12:26:50;1.85;;;0.82;;
54177;SDS011;40085;53.004;6.770;2023-04-24T12:29:20;1.05;;;0.60;;
54177;SDS011;40085;53.004;6.770;2023-04-24T12:31:46;7.43;;;0.98;;
54177;SDS011;40085;53.004;6.770;2023-04-24T12:34:18;2.40;;;0.70;;
54177;SDS011;40085;53.004;6.770;2023-04-24T12:36:45;1.23;;;0.60;;
54177;SDS011;40085;53.004;6.770;2023-04-24T12:39:17;2.78;;;1.05;;
54177;SDS011;40085;53.004;6.770;2023-04-24T12:41:54;1.48;;;0.60;;
54177;SDS011;40085;53.004;6.770;2023-04-24T12:44:32;2.28;;;0.80;;
54177;SDS011;40085;53.004;6.770;2023-04-24T12:47:00;1.90;;;0.93;;
54177;SDS011;40085;53.004;6.770;2023-04-24T12:49:26;1.30;;;0.60;;
54177;SDS011;40085;53.004;6.770;2023-04-24T12:51:52;1.38;;;0.90;;
54177;SDS011;40085;53.004;6.770;2023-04-24T12:54:18;0.55;;;0.47;;
54177;SDS011;40085;53.004;6.770;2023-04-24T12:56:44;0.90;;;0.70;;
54177;SDS011;40085;53.004;6.770;2023-04-24T12:59:10;3.20;;;0.93;;
54177;SDS011;40085;53.004;6.770;2023-04-24T13:01:35;2.70;;;1.02;;
54177;SDS011;40085;53.004;6.770;2023-04-24T13:04:01;1.67;;;1.13;;
54177;SDS011;40085;53.004;6.770;2023-04-24T13:06:26;2.85;;;0.80;;
54177;SDS011;40085;53.004;6.770;2023-04-24T13:08:52;2.20;;;0.63;;
54177;SDS011;40085;53.004;6.770;2023-04-24T13:11:19;2.08;;;0.70;;
54177;SDS011;40085;53.004;6.770;2023-04-24T13:13:46;1.30;;;0.55;;
54177;SDS011;40085;53.004;6.770;2023-04-24T13:16:12;0.57;;;0.57;;
54177;SDS011;40085;53.004;6.770;2023-04-24T13:18:38;5.85;;;0.60;;
54177;SDS011;40085;53.004;6.770;2023-04-24T13:21:03;1.48;;;0.90;;
54177;SDS011;40085;53.004;6.770;2023-04-24T13:23:29;2.92;;;0.80;;
54177;SDS011;40085;53.004;6.770;2023-04-24T13:25:55;2.30;;;0.82;;
54177;SDS011;40085;53.004;6.770;2023-04-24T13:28:23;1.15;;;0.85;;
54177;SDS011;40085;53.004;6.770;2023-04-24T13:30:50;1.50;;;0.70;;
54177;SDS011;40085;53.004;6.770;2023-04-24T13:33:16;3.78;;;0.80;;
54177;SDS011;40085;53.004;6.770;2023-04-24T13:35:41;0.70;;;0.50;;
54177;SDS011;40085;53.004;6.770;2023-04-24T13:38:07;0.60;;;0.40;;
54177;SDS011;40085;53.004;6.770;2023-04-24T13:40:33;1.13;;;0.70;;
54177;SDS011;40085;53.004;6.770;2023-04-24T13:42:59;1.88;;;0.40;;
54177;SDS011;40085;53.004;6.770;2023-04-24T13:45:25;3.63;;;0.50;;
54177;SDS011;40085;53.004;6.770;2023-04-24T13:47:51;1.50;;;0.50;;
54177;SDS011;40085;53.004;6.770;2023-04-24T13:50:17;1.38;;;0.50;;
54177;SDS011;40085;53.004;6.770;2023-04-24T13:52:42;0.68;;;0.40;;
54177;SDS011;40085;53.004;6.770;2023-04-24T13:55:08;0.82;;;0.68;;
54177;SDS011;40085;53.004;6.770;2023-04-24T13:57:34;1.25;;;0.32;;
54177;SDS011;40085;53.004;6.770;2023-04-24T14:00:00;0.55;;;0.32;;
54177;SDS011;40085;53.004;6.770;2023-04-24T14:02:28;0.70;;;0.40;;
54177;SDS011;40085;53.004;6.770;2023-04-24T14:04:54;0.68;;;0.40;;
54177;SDS011;40085;53.004;6.770;2023-04-24T14:07:20;0.30;;;0.30;;
54177;SDS011;40085;53.004;6.770;2023-04-24T14:09:46;1.98;;;0.45;;
54177;SDS011;40085;53.004;6.770;2023-04-24T14:12:11;1.17;;;0.68;;
54177;SDS011;40085;53.004;6.770;2023-04-24T14:14:37;1.30;;;0.70;;
54177;SDS011;40085;53.004;6.770;2023-04-24T14:17:03;2.80;;;0.70;;
54177;SDS011;40085;53.004;6.770;2023-04-24T14:19:28;0.47;;;0.45;;
54177;SDS011;40085;53.004;6.770;2023-04-24T14:21:54;2.40;;;0.65;;
54177;SDS011;40085;53.004;6.770;2023-04-24T14:24:21;1.70;;;0.40;;
54177;SDS011;40085;53.004;6.770;2023-04-24T14:26:47;1.98;;;0.40;;
54177;SDS011;40085;53.004;6.770;2023-04-24T14:29:12;2.78;;;0.60;;
54177;SDS011;40085;53.004;6.770;2023-04-24T14:31:38;2.50;;;0.60;;
54177;SDS011;40085;53.004;6.770;2023-04-24T14:34:03;1.33;;;0.50;;
54177;SDS011;40085;53.004;6.770;2023-04-24T14:36:29;0.85;;;0.50;;
54177;SDS011;40085;53.004;6.770;2023-04-24T14:38:56;2.40;;;0.50;;
54177;SDS011;40085;53.004;6.770;2023-04-24T14:41:22;4.25;;;0.77;;
54177;SDS011;40085;53.004;6.770;2023-04-24T14:43:47;1.30;;;0.68;;
54177;SDS011;40085;53.004;6.770;2023-04-24T14:46:13;2.72;;;0.50;;
54177;SDS011;40085;53.004;6.770;2023-04-24T14:48:38;1.60;;;0.68;;
54177;SDS011;40085;53.004;6.770;2023-04-24T14:51:04;1.20;;;0.57;;
54177;SDS011;40085;53.004;6.770;2023-04-24T14:53:30;4.43;;;0.98;;
54177;SDS011;40085;53.004;6.770;2023-04-24T14:55:55;2.90;;;0.60;;
54177;SDS011;40085;53.004;6.770;2023-04-24T14:58:21;2.65;;;1.33;;
54177;SDS011;40085;53.004;6.770;2023-04-24T15:00:47;2.42;;;1.38;;
54177;SDS011;40085;53.004;6.770;2023-04-24T15:03:15;1.55;;;0.55;;